createdAt,value
2017-12-25T00:00:53.933Z,0
2017-12-25T00:01:53.914Z,0
2017-12-25T00:02:53.151Z,0
2017-12-25T00:03:53.737Z,0
2017-12-25T00:04:53.653Z,0
2017-12-25T00:05:53.406Z,0
2017-12-25T00:06:53.877Z,0
2017-12-25T00:07:53.894Z,0
2017-12-25T00:08:53.855Z,0
2017-12-25T00:09:53.855Z,0
2017-12-25T00:10:53.343Z,0
2017-12-25T00:11:53.587Z,0
2017-12-25T00:12:53.840Z,0
2017-12-25T00:13:53.819Z,0
2017-12-25T00:14:53.816Z,0
2017-12-25T00:15:53.816Z,0
2017-12-25T00:16:53.812Z,0
2017-12-25T00:17:53.545Z,0
2017-12-25T00:18:53.785Z,0
2017-12-25T00:19:53.777Z,0
2017-12-25T00:20:53.279Z,0
2017-12-25T00:21:53.824Z,0
2017-12-25T00:22:53.525Z,0
2017-12-25T00:23:53.763Z,0
2017-12-25T00:24:53.758Z,0
2017-12-25T00:25:53.503Z,0
2017-12-25T00:26:53.763Z,0
2017-12-25T00:27:53.728Z,0
2017-12-25T00:28:53.730Z,0
2017-12-25T00:29:53.748Z,0
2017-12-25T00:30:53.711Z,0
2017-12-25T00:31:53.205Z,0
2017-12-25T00:32:53.204Z,0
2017-12-25T00:33:53.734Z,0
2017-12-25T00:34:53.196Z,0
2017-12-25T00:35:53.710Z,0
2017-12-25T00:36:53.690Z,0
2017-12-25T00:37:53.710Z,0
2017-12-25T00:38:53.686Z,0
2017-12-25T00:39:53.413Z,0
2017-12-25T00:40:53.405Z,0
2017-12-25T00:41:53.699Z,0
2017-12-25T00:42:53.656Z,0
2017-12-25T00:43:53.379Z,0
2017-12-25T00:44:54.427Z,0
2017-12-25T00:45:53.648Z,0
2017-12-25T00:46:53.626Z,0
2017-12-25T00:47:53.606Z,0
2017-12-25T00:48:53.381Z,0
2017-12-25T00:49:53.587Z,0
2017-12-25T00:50:53.400Z,0
2017-12-25T00:51:53.576Z,0
2017-12-25T00:52:53.322Z,0
2017-12-25T00:53:53.325Z,0
2017-12-25T00:54:53.557Z,0
2017-12-25T00:55:53.559Z,0
2017-12-25T00:56:53.289Z,0
2017-12-25T00:57:53.538Z,0
2017-12-25T00:58:53.528Z,0
2017-12-25T00:59:53.561Z,0
2017-12-25T01:00:53.528Z,0
2017-12-25T01:01:53.266Z,0
2017-12-25T01:02:53.266Z,0
2017-12-25T01:03:53.496Z,0
2017-12-25T01:04:53.496Z,0
2017-12-25T01:05:53.241Z,0
2017-12-25T01:06:53.489Z,0
2017-12-25T01:07:53.486Z,0
2017-12-25T01:08:53.463Z,0
2017-12-25T01:09:53.461Z,0
2017-12-25T01:10:53.196Z,0
2017-12-25T01:11:53.200Z,0
2017-12-25T01:12:53.447Z,0
2017-12-25T01:13:53.432Z,0
2017-12-25T01:14:53.477Z,0
2017-12-25T01:15:53.424Z,0
2017-12-25T01:16:53.164Z,0
2017-12-25T01:17:53.149Z,0
2017-12-25T01:18:53.394Z,0
2017-12-25T01:19:53.143Z,0
2017-12-25T01:20:53.139Z,0
2017-12-25T01:21:53.371Z,0
2017-12-25T01:22:53.113Z,0
2017-12-25T01:23:52.857Z,0
2017-12-25T01:24:53.366Z,0
2017-12-25T01:25:53.362Z,0
2017-12-25T01:26:53.092Z,0
2017-12-25T01:27:53.085Z,0
2017-12-25T01:28:53.340Z,0
2017-12-25T01:29:53.319Z,0
2017-12-25T01:30:55.191Z,0
2017-12-25T01:31:53.318Z,0
2017-12-25T01:32:53.053Z,0
2017-12-25T01:33:53.293Z,0
2017-12-25T01:34:53.292Z,0
2017-12-25T01:35:52.784Z,0
2017-12-25T01:36:53.294Z,0
2017-12-25T01:37:53.031Z,0
2017-12-25T01:38:53.262Z,0
2017-12-25T01:39:53.005Z,0
2017-12-25T01:40:53.252Z,0
2017-12-25T01:41:53.248Z,0
2017-12-25T01:42:52.991Z,0
2017-12-25T01:43:53.263Z,0
2017-12-25T01:44:52.730Z,0
2017-12-25T01:45:53.373Z,0
2017-12-25T01:46:52.966Z,0
2017-12-25T01:47:52.964Z,0
2017-12-25T01:48:52.702Z,0
2017-12-25T01:49:52.701Z,0
2017-12-25T01:50:52.682Z,0
2017-12-25T01:51:53.184Z,0
2017-12-25T01:52:53.181Z,0
2017-12-25T01:53:53.168Z,0
2017-12-25T01:54:53.171Z,0
2017-12-25T01:55:53.161Z,0
2017-12-25T01:56:52.900Z,0
2017-12-25T01:57:52.906Z,0
2017-12-25T01:58:52.891Z,0
2017-12-25T01:59:52.884Z,0
2017-12-25T02:00:53.431Z,0
2017-12-25T02:01:52.871Z,0
2017-12-25T02:02:52.614Z,0
2017-12-25T02:03:52.860Z,0
2017-12-25T02:04:52.864Z,0
2017-12-25T02:05:53.103Z,0
2017-12-25T02:06:53.104Z,0
2017-12-25T02:07:52.843Z,0
2017-12-25T02:08:53.073Z,0
2017-12-25T02:09:53.064Z,0
2017-12-25T02:10:52.554Z,0
2017-12-25T02:11:53.057Z,0
2017-12-25T02:12:53.039Z,0
2017-12-25T02:13:53.057Z,0
2017-12-25T02:14:53.038Z,0
2017-12-25T02:15:53.780Z,0
2017-12-25T02:16:53.009Z,0
2017-12-25T02:17:53.010Z,0
2017-12-25T02:18:52.747Z,0
2017-12-25T02:19:52.748Z,0
2017-12-25T02:20:52.488Z,0
2017-12-25T02:21:52.992Z,0
2017-12-25T02:22:52.719Z,0
2017-12-25T02:23:52.970Z,0
2017-12-25T02:24:52.959Z,0
2017-12-25T02:25:52.955Z,0
2017-12-25T02:26:52.438Z,0
2017-12-25T02:27:52.697Z,0
2017-12-25T02:28:52.932Z,0
2017-12-25T02:29:52.423Z,0
2017-12-25T02:30:52.927Z,0
2017-12-25T02:31:52.670Z,0
2017-12-25T02:32:52.916Z,0
2017-12-25T02:33:52.911Z,0
2017-12-25T02:34:52.945Z,0
2017-12-25T02:35:52.878Z,0
2017-12-25T02:36:52.620Z,0
2017-12-25T02:37:52.872Z,0
2017-12-25T02:38:52.889Z,0
2017-12-25T02:39:52.863Z,0
2017-12-25T02:40:52.609Z,0
2017-12-25T02:41:52.640Z,0
2017-12-25T02:42:52.829Z,0
2017-12-25T02:43:52.838Z,0
2017-12-25T02:44:52.824Z,0
2017-12-25T02:45:52.865Z,0
2017-12-25T02:46:52.562Z,0
2017-12-25T02:47:52.806Z,0
2017-12-25T02:48:52.538Z,0
2017-12-25T02:49:52.782Z,0
2017-12-25T02:50:52.520Z,0
2017-12-25T02:51:52.552Z,0
2017-12-25T02:52:52.777Z,0
2017-12-25T02:53:52.258Z,0
2017-12-25T02:54:52.748Z,0
2017-12-25T02:55:52.485Z,0
2017-12-25T02:56:52.740Z,0
2017-12-25T02:57:52.735Z,0
2017-12-25T02:58:52.716Z,0
2017-12-25T02:59:52.472Z,0
2017-12-25T03:00:52.754Z,0
2017-12-25T03:01:52.442Z,0
2017-12-25T03:02:52.447Z,0
2017-12-25T03:03:52.685Z,0
2017-12-25T03:04:52.673Z,0
2017-12-25T03:05:52.688Z,0
2017-12-25T03:06:52.678Z,0
2017-12-25T03:07:52.417Z,0
2017-12-25T03:08:52.644Z,0
2017-12-25T03:09:52.383Z,0
2017-12-25T03:10:52.413Z,0
2017-12-25T03:11:52.367Z,0
2017-12-25T03:12:52.385Z,0
2017-12-25T03:13:52.611Z,0
2017-12-25T03:14:52.361Z,0
2017-12-25T03:15:52.106Z,0
2017-12-25T03:16:52.352Z,0
2017-12-25T03:17:52.578Z,0
2017-12-25T03:18:52.064Z,0
2017-12-25T03:19:52.563Z,0
2017-12-25T03:20:52.558Z,0
2017-12-25T03:21:52.555Z,0
2017-12-25T03:22:52.287Z,0
2017-12-25T03:23:52.289Z,0
2017-12-25T03:24:52.277Z,0
2017-12-25T03:25:52.272Z,0
2017-12-25T03:26:52.519Z,0
2017-12-25T03:27:52.255Z,0
2017-12-25T03:28:52.500Z,0
2017-12-25T03:29:52.497Z,0
2017-12-25T03:30:52.495Z,0
2017-12-25T03:31:52.232Z,0
2017-12-25T03:32:52.216Z,0
2017-12-25T03:33:52.464Z,0
2017-12-25T03:34:52.468Z,0
2017-12-25T03:35:52.199Z,0
2017-12-25T03:36:52.194Z,0
2017-12-25T03:37:52.184Z,0
2017-12-25T03:38:51.927Z,0
2017-12-25T03:39:52.172Z,0
2017-12-25T03:40:52.420Z,0
2017-12-25T03:41:52.437Z,0
2017-12-25T03:42:52.147Z,0
2017-12-25T03:43:52.141Z,0
2017-12-25T03:44:52.398Z,0
2017-12-25T03:45:52.405Z,0
2017-12-25T03:46:51.868Z,0
2017-12-25T03:47:52.109Z,0
2017-12-25T03:48:52.403Z,0
2017-12-25T03:49:52.356Z,0
2017-12-25T03:50:52.091Z,0
2017-12-25T03:51:52.093Z,0
2017-12-25T03:52:52.354Z,0
2017-12-25T03:53:52.073Z,0
2017-12-25T03:54:52.075Z,0
2017-12-25T03:55:52.299Z,0
2017-12-25T03:56:52.296Z,0
2017-12-25T03:57:52.285Z,0
2017-12-25T03:58:52.301Z,0
2017-12-25T03:59:52.044Z,0
2017-12-25T04:00:52.036Z,0
2017-12-25T04:01:52.260Z,0
2017-12-25T04:02:52.013Z,0
2017-12-25T04:03:52.245Z,0
2017-12-25T04:04:52.235Z,0
2017-12-25T04:05:52.234Z,0
2017-12-25T04:06:52.224Z,0
2017-12-25T04:07:52.213Z,0
2017-12-25T04:08:51.987Z,0
2017-12-25T04:09:51.948Z,0
2017-12-25T04:10:51.694Z,0
2017-12-25T04:11:52.200Z,0
2017-12-25T04:12:51.927Z,0
2017-12-25T04:13:52.174Z,0
2017-12-25T04:14:52.166Z,0
2017-12-25T04:15:52.162Z,0
2017-12-25T04:16:51.899Z,0
2017-12-25T04:17:52.139Z,0
2017-12-25T04:18:51.880Z,0
2017-12-25T04:19:52.175Z,0
2017-12-25T04:20:51.865Z,0
2017-12-25T04:21:52.104Z,0
2017-12-25T04:22:52.111Z,0
2017-12-25T04:23:52.106Z,0
2017-12-25T04:24:52.089Z,0
2017-12-25T04:25:52.090Z,0
2017-12-25T04:26:52.074Z,0
2017-12-25T04:27:52.064Z,0
2017-12-25T04:28:52.068Z,0
2017-12-25T04:29:52.064Z,0
2017-12-25T04:30:51.799Z,0
2017-12-25T04:31:53.142Z,0
2017-12-25T04:32:52.029Z,0
2017-12-25T04:33:52.020Z,0
2017-12-25T04:34:52.014Z,0
2017-12-25T04:35:52.018Z,0
2017-12-25T04:36:51.745Z,0
2017-12-25T04:37:51.738Z,0
2017-12-25T04:38:51.985Z,0
2017-12-25T04:39:51.967Z,0
2017-12-25T04:40:51.711Z,0
2017-12-25T04:41:51.714Z,0
2017-12-25T04:42:51.939Z,0
2017-12-25T04:43:51.940Z,0
2017-12-25T04:44:51.930Z,0
2017-12-25T04:45:51.680Z,0
2017-12-25T04:46:52.010Z,0
2017-12-25T04:47:51.922Z,0
2017-12-25T04:48:51.410Z,0
2017-12-25T04:49:51.657Z,0
2017-12-25T04:50:51.889Z,0
2017-12-25T04:51:51.641Z,0
2017-12-25T04:52:51.380Z,0
2017-12-25T04:53:51.611Z,0
2017-12-25T04:54:51.856Z,0
2017-12-25T04:55:51.592Z,0
2017-12-25T04:56:51.845Z,0
2017-12-25T04:57:51.842Z,0
2017-12-25T04:58:51.830Z,0
2017-12-25T04:59:51.847Z,0
2017-12-25T05:00:51.555Z,0
2017-12-25T05:01:51.811Z,0
2017-12-25T05:02:51.789Z,0
2017-12-25T05:03:51.782Z,0
2017-12-25T05:04:51.786Z,0
2017-12-25T05:05:51.769Z,0
2017-12-25T05:06:51.266Z,0
2017-12-25T05:07:51.758Z,0
2017-12-25T05:08:51.759Z,0
2017-12-25T05:09:51.483Z,0
2017-12-25T05:10:51.482Z,0
2017-12-25T05:11:51.476Z,0
2017-12-25T05:12:51.454Z,0
2017-12-25T05:13:51.717Z,0
2017-12-25T05:14:51.445Z,0
2017-12-25T05:15:51.435Z,0
2017-12-25T05:16:51.678Z,0
2017-12-25T05:17:51.667Z,0
2017-12-25T05:18:51.418Z,0
2017-12-25T05:19:51.418Z,0
2017-12-25T05:20:51.647Z,0
2017-12-25T05:21:51.642Z,0
2017-12-25T05:22:51.622Z,0
2017-12-25T05:23:51.368Z,0
2017-12-25T05:24:51.606Z,0
2017-12-25T05:25:51.399Z,0
2017-12-25T05:26:51.594Z,0
2017-12-25T05:27:51.585Z,0
2017-12-25T05:28:51.335Z,0
2017-12-25T05:29:51.577Z,0
2017-12-25T05:30:51.555Z,0
2017-12-25T05:31:51.347Z,0
2017-12-25T05:32:51.601Z,0
2017-12-25T05:33:51.543Z,0
2017-12-25T05:34:51.541Z,0
2017-12-25T05:35:51.518Z,0
2017-12-25T05:36:51.510Z,0
2017-12-25T05:37:51.509Z,0
2017-12-25T05:38:51.261Z,0
2017-12-25T05:39:51.238Z,0
2017-12-25T05:40:51.240Z,0
2017-12-25T05:41:51.226Z,0
2017-12-25T05:42:51.215Z,0
2017-12-25T05:43:51.501Z,0
2017-12-25T05:44:51.443Z,0
2017-12-25T05:45:51.193Z,0
2017-12-25T05:46:51.178Z,0
2017-12-25T05:47:50.914Z,0
2017-12-25T05:48:51.411Z,0
2017-12-25T05:49:51.408Z,0
2017-12-25T05:50:51.149Z,0
2017-12-25T05:51:51.408Z,0
2017-12-25T05:52:51.398Z,0
2017-12-25T05:53:51.375Z,0
2017-12-25T05:54:51.113Z,0
2017-12-25T05:55:51.104Z,0
2017-12-25T05:56:51.350Z,0
2017-12-25T05:57:51.349Z,0
2017-12-25T05:58:51.075Z,0
2017-12-25T05:59:51.336Z,0
2017-12-25T06:00:51.339Z,0
2017-12-25T06:01:52.931Z,0
2017-12-25T06:02:51.043Z,0
2017-12-25T06:03:51.299Z,0
2017-12-25T06:04:51.293Z,0
2017-12-25T06:05:51.335Z,0
2017-12-25T06:06:50.769Z,0
2017-12-25T06:07:51.278Z,0
2017-12-25T06:08:51.252Z,0
2017-12-25T06:09:50.984Z,0
2017-12-25T06:10:50.985Z,0
2017-12-25T06:11:50.980Z,0
2017-12-25T06:12:51.223Z,0
2017-12-25T06:13:51.208Z,0
2017-12-25T06:14:51.200Z,0
2017-12-25T06:15:50.941Z,0
2017-12-25T06:16:51.182Z,0
2017-12-25T06:17:51.182Z,0
2017-12-25T06:18:50.922Z,0
2017-12-25T06:19:51.166Z,0
2017-12-25T06:20:50.895Z,0
2017-12-25T06:21:50.893Z,0
2017-12-25T06:22:51.138Z,0
2017-12-25T06:23:51.136Z,0
2017-12-25T06:24:51.123Z,0
2017-12-25T06:25:50.854Z,0
2017-12-25T06:26:51.099Z,0
2017-12-25T06:27:51.096Z,0
2017-12-25T06:28:51.097Z,0
2017-12-25T06:29:51.076Z,0
2017-12-25T06:30:50.817Z,0
2017-12-25T06:31:51.061Z,0
2017-12-25T06:32:51.042Z,0
2017-12-25T06:33:50.553Z,0
2017-12-25T06:34:51.039Z,0
2017-12-25T06:35:51.077Z,0
2017-12-25T06:36:51.031Z,0
2017-12-25T06:37:51.016Z,0
2017-12-25T06:38:51.002Z,0
2017-12-25T06:39:50.741Z,0
2017-12-25T06:40:50.986Z,0
2017-12-25T06:41:50.734Z,0
2017-12-25T06:42:50.971Z,4
2017-12-25T06:43:50.961Z,4
2017-12-25T06:44:50.707Z,0
2017-12-25T06:45:50.691Z,0
2017-12-25T06:46:50.945Z,0
2017-12-25T06:47:51.016Z,4
2017-12-25T06:48:50.933Z,0
2017-12-25T06:49:50.913Z,4
2017-12-25T06:50:50.665Z,4
2017-12-25T06:51:50.398Z,4
2017-12-25T06:52:50.912Z,4
2017-12-25T06:53:50.881Z,4
2017-12-25T06:54:50.875Z,8
2017-12-25T06:55:50.863Z,8
2017-12-25T06:56:50.878Z,12
2017-12-25T06:57:51.644Z,12
2017-12-25T06:58:50.849Z,12
2017-12-25T06:59:50.827Z,12
2017-12-25T07:00:50.580Z,16
2017-12-25T07:01:50.559Z,16
2017-12-25T07:02:50.701Z,20
2017-12-25T07:03:50.799Z,20
2017-12-25T07:04:50.785Z,24
2017-12-25T07:05:50.782Z,24
2017-12-25T07:06:50.783Z,32
2017-12-25T07:07:50.771Z,36
2017-12-25T07:08:50.756Z,36
2017-12-25T07:09:50.754Z,44
2017-12-25T07:10:50.486Z,48
2017-12-25T07:11:50.739Z,52
2017-12-25T07:12:50.725Z,52
2017-12-25T07:13:50.720Z,60
2017-12-25T07:14:50.450Z,64
2017-12-25T07:15:50.444Z,72
2017-12-25T07:16:50.433Z,76
2017-12-25T07:17:50.434Z,84
2017-12-25T07:18:50.677Z,88
2017-12-25T07:19:50.687Z,96
2017-12-25T07:20:50.668Z,104
2017-12-25T07:21:50.674Z,112
2017-12-25T07:22:50.666Z,124
2017-12-25T07:23:50.626Z,132
2017-12-25T07:24:50.367Z,140
2017-12-25T07:25:50.616Z,144
2017-12-25T07:26:50.602Z,152
2017-12-25T07:27:50.342Z,164
2017-12-25T07:28:50.586Z,176
2017-12-25T07:29:50.078Z,184
2017-12-25T07:30:50.326Z,196
2017-12-25T07:31:50.556Z,208
2017-12-25T07:32:51.099Z,220
2017-12-25T07:33:49.786Z,228
2017-12-25T07:34:50.541Z,236
2017-12-25T07:35:50.527Z,240
2017-12-25T07:36:50.519Z,248
2017-12-25T07:37:50.508Z,256
2017-12-25T07:38:50.497Z,272
2017-12-25T07:39:50.488Z,284
2017-12-25T07:40:50.239Z,296
2017-12-25T07:41:50.244Z,308
2017-12-25T07:42:50.483Z,316
2017-12-25T07:43:50.458Z,328
2017-12-25T07:44:50.461Z,344
2017-12-25T07:45:50.203Z,364
2017-12-25T07:46:50.436Z,376
2017-12-25T07:47:50.171Z,384
2017-12-25T07:48:50.164Z,392
2017-12-25T07:49:50.421Z,408
2017-12-25T07:50:50.415Z,436
2017-12-25T07:51:50.409Z,460
2017-12-25T07:52:50.144Z,472
2017-12-25T07:53:50.380Z,488
2017-12-25T07:54:50.408Z,504
2017-12-25T07:55:50.360Z,528
2017-12-25T07:56:50.358Z,540
2017-12-25T07:57:50.339Z,548
2017-12-25T07:58:50.089Z,564
2017-12-25T07:59:50.336Z,584
2017-12-25T08:00:50.316Z,596
2017-12-25T08:01:50.306Z,596
2017-12-25T08:02:50.305Z,600
2017-12-25T08:03:50.190Z,620
2017-12-25T08:04:50.036Z,624
2017-12-25T08:05:50.033Z,636
2017-12-25T08:06:50.273Z,652
2017-12-25T08:07:50.266Z,660
2017-12-25T08:08:50.009Z,668
2017-12-25T08:09:49.992Z,692
2017-12-25T08:10:50.291Z,720
2017-12-25T08:11:50.232Z,740
2017-12-25T08:12:50.216Z,760
2017-12-25T08:13:50.220Z,788
2017-12-25T08:14:49.694Z,820
2017-12-25T08:15:49.947Z,836
2017-12-25T08:16:49.935Z,828
2017-12-25T08:17:50.179Z,832
2017-12-25T08:18:50.224Z,856
2017-12-25T08:19:49.917Z,880
2017-12-25T08:20:50.157Z,896
2017-12-25T08:21:49.648Z,900
2017-12-25T08:22:50.156Z,908
2017-12-25T08:23:50.165Z,924
2017-12-25T08:24:50.128Z,948
2017-12-25T08:25:50.123Z,968
2017-12-25T08:26:49.601Z,996
2017-12-25T08:27:49.848Z,1032
2017-12-25T08:28:50.088Z,1056
2017-12-25T08:29:49.835Z,1068
2017-12-25T08:30:50.087Z,1080
2017-12-25T08:31:49.564Z,1096
2017-12-25T08:32:49.801Z,1120
2017-12-25T08:33:50.052Z,1164
2017-12-25T08:34:50.041Z,1200
2017-12-25T08:35:50.087Z,1276
2017-12-25T08:37:21.901Z,1432
2017-12-25T08:37:50.018Z,1488
2017-12-25T08:38:50.020Z,1636
2017-12-25T08:39:50.013Z,1712
2017-12-25T08:40:49.992Z,1708
2017-12-25T08:41:49.739Z,1832
2017-12-25T08:42:49.732Z,1868
2017-12-25T08:43:50.029Z,1948
2017-12-25T08:44:49.731Z,1940
2017-12-25T08:45:49.707Z,1904
2017-12-25T08:46:49.693Z,1888
2017-12-25T08:47:49.699Z,1876
2017-12-25T08:48:49.936Z,1840
2017-12-25T08:49:49.956Z,1820
2017-12-25T08:50:49.916Z,1856
2017-12-25T08:51:49.655Z,1912
2017-12-25T08:52:49.391Z,1952
2017-12-25T08:53:49.899Z,2024
2017-12-25T08:54:49.886Z,2072
2017-12-25T08:55:49.621Z,2136
2017-12-25T08:56:49.617Z,2164
2017-12-25T08:57:49.857Z,2120
2017-12-25T08:58:49.609Z,2084
2017-12-25T08:59:49.845Z,2092
2017-12-25T09:00:49.580Z,2184
2017-12-25T09:01:49.619Z,2240
2017-12-25T09:02:49.831Z,2308
2017-12-25T09:03:50.635Z,2336
2017-12-25T09:04:49.806Z,2312
2017-12-25T09:05:49.553Z,2300
2017-12-25T09:06:49.797Z,2304
2017-12-25T09:07:49.808Z,2344
2017-12-25T09:08:49.785Z,2388
2017-12-25T09:09:49.766Z,2376
2017-12-25T09:10:49.774Z,2364
2017-12-25T09:11:49.751Z,2332
2017-12-25T09:12:49.498Z,2376
2017-12-25T09:13:49.732Z,2508
2017-12-25T09:14:49.728Z,2604
2017-12-25T09:15:49.475Z,2700
2017-12-25T09:16:49.464Z,2772
2017-12-25T09:17:49.708Z,2860
2017-12-25T09:18:49.700Z,2968
2017-12-25T09:19:49.442Z,3544
2017-12-25T09:20:49.436Z,4092
2017-12-25T09:21:49.679Z,3960
2017-12-25T09:22:49.424Z,3824
2017-12-25T09:23:49.669Z,3704
2017-12-25T09:24:49.147Z,3784
2017-12-25T09:25:49.654Z,3604
2017-12-25T09:26:49.639Z,3664
2017-12-25T09:27:49.647Z,3764
2017-12-25T09:28:49.370Z,3936
2017-12-25T09:29:49.360Z,4476
2017-12-25T09:30:49.691Z,4648
2017-12-25T09:31:49.607Z,4784
2017-12-25T09:32:49.338Z,4624
2017-12-25T09:33:49.848Z,4260
2017-12-25T09:34:49.582Z,4316
2017-12-25T09:35:49.580Z,4180
2017-12-25T09:36:49.328Z,4028
2017-12-25T09:37:49.322Z,3836
2017-12-25T09:38:49.311Z,3900
2017-12-25T09:39:49.550Z,3908
2017-12-25T09:40:49.541Z,3892
2017-12-25T09:41:49.534Z,3996
2017-12-25T09:42:49.527Z,4472
2017-12-25T09:43:49.514Z,4684
2017-12-25T09:44:49.262Z,4004
2017-12-25T09:45:49.495Z,3880
2017-12-25T09:46:49.514Z,3848
2017-12-25T09:47:49.230Z,3860
2017-12-25T09:48:48.976Z,3888
2017-12-25T09:49:49.482Z,3944
2017-12-25T09:50:49.469Z,4056
2017-12-25T09:51:49.461Z,4880
2017-12-25T09:52:49.196Z,5148
2017-12-25T09:53:49.455Z,4404
2017-12-25T09:54:49.430Z,5176
2017-12-25T09:55:49.177Z,5472
2017-12-25T09:56:49.428Z,5400
2017-12-25T09:57:48.915Z,5464
2017-12-25T09:58:49.407Z,5492
2017-12-25T09:59:48.892Z,5480
2017-12-25T10:00:49.388Z,5500
2017-12-25T10:01:48.876Z,5512
2017-12-25T10:02:48.876Z,5504
2017-12-25T10:03:49.361Z,5488
2017-12-25T10:04:49.356Z,5492
2017-12-25T10:05:49.357Z,5512
2017-12-25T10:06:49.101Z,5520
2017-12-25T10:07:48.843Z,5536
2017-12-25T10:08:49.081Z,5520
2017-12-25T10:09:49.336Z,5528
2017-12-25T10:10:49.337Z,5536
2017-12-25T10:11:49.309Z,5516
2017-12-25T10:12:49.304Z,5488
2017-12-25T10:13:49.358Z,5476
2017-12-25T10:14:49.293Z,5460
2017-12-25T10:15:49.287Z,5488
2017-12-25T10:16:49.019Z,5480
2017-12-25T10:17:49.265Z,5444
2017-12-25T10:18:49.261Z,5416
2017-12-25T10:19:48.742Z,5408
2017-12-25T10:20:48.812Z,5400
2017-12-25T10:21:48.984Z,5444
2017-12-25T10:52:32.127Z,5352
2017-12-25T10:53:29.654Z,5352
2017-12-25T10:54:29.693Z,5340
2017-12-25T10:55:29.430Z,5332
2017-12-25T10:56:29.613Z,5320
2017-12-25T10:57:29.367Z,5304
2017-12-25T10:58:29.615Z,5296
2017-12-25T10:59:29.591Z,5288
2017-12-25T11:00:29.572Z,5276
2017-12-25T11:01:29.311Z,5268
2017-12-25T11:02:29.306Z,5252
2017-12-25T11:03:29.317Z,5252
2017-12-25T11:04:29.278Z,5252
2017-12-25T11:05:29.524Z,5244
2017-12-25T11:06:29.516Z,5236
2017-12-25T11:07:29.261Z,5232
2017-12-25T11:08:29.497Z,5224
2017-12-25T11:09:29.494Z,5216
2017-12-25T11:10:29.234Z,5200
2017-12-25T11:11:29.231Z,5188
2017-12-25T11:12:28.964Z,5184
2017-12-25T11:13:29.454Z,5176
2017-12-25T11:14:29.197Z,5168
2017-12-25T11:15:29.448Z,5160
2017-12-25T11:16:28.941Z,5152
2017-12-25T11:17:29.430Z,5148
2017-12-25T11:18:29.168Z,5140
2017-12-25T11:19:29.415Z,5132
2017-12-25T11:20:29.406Z,5124
2017-12-25T11:21:29.175Z,5116
2017-12-25T11:22:29.397Z,5108
2017-12-25T11:23:29.385Z,5100
2017-12-25T11:24:28.880Z,5092
2017-12-25T11:25:29.381Z,5084
2017-12-25T11:26:29.120Z,5076
2017-12-25T11:27:29.385Z,5068
2017-12-25T11:28:29.360Z,5060
2017-12-25T11:29:29.090Z,5048
2017-12-25T11:30:29.340Z,5040
2017-12-25T11:31:29.342Z,5032
2017-12-25T11:32:29.090Z,5024
2017-12-25T11:33:29.330Z,5012
2017-12-25T11:34:29.325Z,5000
2017-12-25T11:35:29.080Z,4988
2017-12-25T11:36:29.304Z,4984
2017-12-25T11:37:29.057Z,4964
2017-12-25T11:38:29.286Z,4924
2017-12-25T11:39:28.782Z,4908
2017-12-25T11:40:29.287Z,4876
2017-12-25T11:41:29.021Z,4884
2017-12-25T11:42:29.019Z,4836
2017-12-25T11:43:29.259Z,4832
2017-12-25T11:44:29.254Z,4852
2017-12-25T11:45:29.243Z,4844
2017-12-25T11:46:29.234Z,4844
2017-12-25T11:47:29.245Z,4832
2017-12-25T11:48:28.984Z,4820
2017-12-25T11:49:29.230Z,4812
2017-12-25T11:50:29.208Z,4804
2017-12-25T11:51:28.699Z,4792
2017-12-25T11:52:28.938Z,4784
2017-12-25T11:53:28.985Z,4772
2017-12-25T11:54:29.194Z,4760
2017-12-25T11:55:28.685Z,4748
2017-12-25T11:56:28.675Z,4736
2017-12-25T11:57:29.191Z,4720
2017-12-25T11:58:28.656Z,4708
2017-12-25T11:59:29.156Z,4696
2017-12-25T12:00:28.905Z,4692
2017-12-25T12:01:29.148Z,4676
2017-12-25T12:02:28.876Z,4664
2017-12-25T12:03:29.133Z,4652
2017-12-25T12:04:28.636Z,4644
2017-12-25T12:05:28.857Z,4636
2017-12-25T12:06:29.130Z,4620
2017-12-25T12:07:31.752Z,4612
2017-12-25T12:08:28.861Z,4608
2017-12-25T12:09:29.115Z,4592
2017-12-25T12:10:29.098Z,4580
2017-12-25T12:11:28.834Z,4564
2017-12-25T12:12:28.830Z,4552
2017-12-25T12:13:29.054Z,4540
2017-12-25T12:14:28.791Z,4528
2017-12-25T12:15:29.104Z,4528
2017-12-25T12:16:28.789Z,4524
2017-12-25T12:17:28.778Z,4504
2017-12-25T12:18:29.029Z,4492
2017-12-25T12:19:29.032Z,4476
2017-12-25T12:20:29.014Z,4472
2017-12-25T12:21:29.051Z,4452
2017-12-25T12:22:28.756Z,4444
2017-12-25T12:23:28.744Z,4436
2017-12-25T12:24:28.983Z,4420
2017-12-25T12:25:28.974Z,4408
2017-12-25T12:26:28.725Z,4396
2017-12-25T12:27:28.714Z,4388
2017-12-25T12:28:28.959Z,4380
2017-12-25T12:29:28.713Z,4364
2017-12-25T12:30:28.700Z,4352
2017-12-25T12:31:28.946Z,4344
2017-12-25T12:32:28.936Z,4316
2017-12-25T12:33:28.425Z,4296
2017-12-25T12:34:28.926Z,4288
2017-12-25T12:35:28.915Z,4276
2017-12-25T12:36:28.675Z,4268
2017-12-25T12:37:28.909Z,4252
2017-12-25T12:38:28.659Z,4244
2017-12-25T12:39:28.897Z,4224
2017-12-25T12:40:28.897Z,4212
2017-12-25T12:41:28.885Z,4192
2017-12-25T12:42:28.622Z,4172
2017-12-25T12:43:28.872Z,4156
2017-12-25T12:44:28.929Z,4140
2017-12-25T12:45:28.867Z,4124
2017-12-25T12:46:28.897Z,4112
2017-12-25T12:47:28.594Z,4096
2017-12-25T12:48:28.851Z,4088
2017-12-25T12:49:28.584Z,4072
2017-12-25T12:50:28.587Z,4060
2017-12-25T12:51:28.582Z,4044
2017-12-25T12:52:28.563Z,4024
2017-12-25T12:53:28.816Z,4012
2017-12-25T12:54:28.565Z,3996
2017-12-25T12:55:28.807Z,3980
2017-12-25T12:56:28.540Z,3960
2017-12-25T12:57:28.793Z,3948
2017-12-25T12:58:28.530Z,3932
2017-12-25T12:59:28.783Z,3916
2017-12-25T13:00:28.603Z,3900
2017-12-25T13:01:28.764Z,3880
2017-12-25T13:02:28.272Z,3864
2017-12-25T13:03:28.758Z,3848
2017-12-25T13:04:28.773Z,3832
2017-12-25T13:05:28.752Z,3816
2017-12-25T13:06:28.736Z,3800
2017-12-25T13:07:28.481Z,3780
2017-12-25T13:08:28.732Z,3764
2017-12-25T13:09:28.717Z,3740
2017-12-25T13:10:28.456Z,3728
2017-12-25T13:11:28.712Z,3708
2017-12-25T13:12:28.468Z,3692
2017-12-25T13:13:28.451Z,3676
2017-12-25T13:14:28.463Z,3660
2017-12-25T13:15:28.461Z,3640
2017-12-25T13:16:28.679Z,3620
2017-12-25T13:17:28.441Z,3604
2017-12-25T13:18:28.676Z,3584
2017-12-25T13:19:28.686Z,3496
2017-12-25T13:20:28.667Z,3552
2017-12-25T13:21:28.153Z,3532
2017-12-25T13:22:29.468Z,3460
2017-12-25T13:23:28.728Z,3420
2017-12-25T13:24:28.398Z,3432
2017-12-25T13:25:28.133Z,3456
2017-12-25T13:26:28.389Z,3436
2017-12-25T13:27:28.371Z,3416
2017-12-25T13:28:28.620Z,3396
2017-12-25T13:29:28.630Z,3364
2017-12-25T13:30:28.357Z,3308
2017-12-25T13:31:28.614Z,3304
2017-12-25T13:32:28.341Z,3272
2017-12-25T13:33:28.335Z,3240
2017-12-25T13:34:28.584Z,3180
2017-12-25T13:35:28.584Z,3044
2017-12-25T13:36:28.314Z,2992
2017-12-25T13:37:28.312Z,3024
2017-12-25T13:38:28.052Z,3000
2017-12-25T13:39:28.553Z,2964
2017-12-25T13:40:28.039Z,2916
2017-12-25T13:41:28.304Z,2876
2017-12-25T13:42:28.075Z,2848
2017-12-25T13:43:28.269Z,2816
2017-12-25T13:44:28.632Z,2784
2017-12-25T13:45:28.313Z,2772
2017-12-25T13:46:28.260Z,2752
2017-12-25T13:47:28.519Z,2740
2017-12-25T13:48:28.506Z,2728
2017-12-25T13:49:28.250Z,2716
2017-12-25T13:50:28.491Z,2700
2017-12-25T13:51:28.493Z,2680
2017-12-25T13:52:28.495Z,2668
2017-12-25T13:53:28.238Z,2648
2017-12-25T13:54:28.470Z,2636
2017-12-25T13:55:28.450Z,2616
2017-12-25T13:56:28.194Z,2600
2017-12-25T13:57:28.435Z,2580
2017-12-25T13:58:28.195Z,2556
2017-12-25T13:59:28.185Z,2540
2017-12-25T14:00:28.447Z,2532
2017-12-25T14:01:28.414Z,2512
2017-12-25T14:02:28.410Z,2496
2017-12-25T14:03:28.140Z,2480
2017-12-25T14:04:28.140Z,2460
2017-12-25T14:05:28.378Z,2436
2017-12-25T14:06:28.430Z,2420
2017-12-25T14:07:28.379Z,2400
2017-12-25T14:08:28.107Z,2380
2017-12-25T14:09:27.852Z,2352
2017-12-25T14:10:28.344Z,2308
2017-12-25T14:11:28.359Z,2248
2017-12-25T14:12:28.333Z,2192
2017-12-25T14:13:28.080Z,2140
2017-12-25T14:14:28.074Z,2108
2017-12-25T14:15:28.062Z,2100
2017-12-25T14:16:28.047Z,2068
2017-12-25T14:17:28.043Z,2036
2017-12-25T14:18:28.290Z,2020
2017-12-25T14:19:28.284Z,1992
2017-12-25T14:20:27.764Z,1968
2017-12-25T14:21:28.020Z,1960
2017-12-25T14:22:28.272Z,1956
2017-12-25T14:23:28.015Z,1940
2017-12-25T14:24:27.742Z,1908
2017-12-25T14:25:27.500Z,1876
2017-12-25T14:26:27.728Z,1824
2017-12-25T14:27:27.999Z,1784
2017-12-25T14:28:27.745Z,1748
2017-12-25T14:29:27.986Z,1692
2017-12-25T14:30:28.226Z,1628
2017-12-25T14:31:28.194Z,1572
2017-12-25T14:32:27.933Z,1524
2017-12-25T14:33:28.010Z,1480